Time;durP1;ratioP1;P1;durP2;ratioP2;P2;SDS_P1;SDS_P2;PMS_P1;PMS_P2;Temp;Humidity;BMP_temperature;BMP_pressure;BME280_temperature;BME280_humidity;BME280_pressure;Samples;Min_cycle;Max_cycle;Signal;HPM_P1;HPM_P2
2023/09/16 00:04:11;;;;;;;5.35;1.30;;;;;;;24.78;41.92;100687.66;42014988;28;20048;-75
2023/09/16 00:24:11;;;;;;;6.40;1.80;;;;;;;24.66;41.84;100674.63;42025079;28;20055;-72
2023/09/16 00:44:12;;;;;;;4.15;1.70;;;;;;;24.48;42.34;100666.50;42020586;28;20581;-71
2023/09/16 01:04:12;;;;;;;2.80;1.63;;;;;;;24.62;42.12;100669.59;42016756;28;20041;-72
2023/09/16 01:24:23;;;;;;;5.07;1.73;;;;;;;24.73;42.21;100689.88;42007112;28;20036;-73
2023/09/16 01:44:23;;;;;;;2.13;1.92;;;;;;;24.54;42.78;100668.59;42024897;28;20040;-72
2023/09/16 02:04:24;;;;;;;3.30;1.50;;;;;;;24.56;42.79;100691.31;42014434;28;20040;-71
2023/09/16 02:24:24;;;;;;;3.53;1.58;;;;;;;24.51;42.76;100688.25;42008197;28;20505;-72
2023/09/16 02:44:25;;;;;;;2.13;1.63;;;;;;;24.34;42.27;100676.47;42005474;28;20550;-73
2023/09/16 03:04:25;;;;;;;3.40;1.60;;;;;;;24.21;42.04;100650.22;42006586;28;20492;-73
2023/09/16 03:24:25;;;;;;;4.22;1.70;;;;;;;24.24;42.45;100670.28;42032761;28;20075;-73
2023/09/16 03:44:26;;;;;;;6.30;1.48;;;;;;;24.24;43.18;100681.72;42031555;28;20047;-72
2023/09/16 04:04:27;;;;;;;3.90;1.48;;;;;;;24.42;42.77;100707.56;42026322;28;20089;-71
2023/09/16 04:24:28;;;;;;;1.80;1.60;;;;;;;24.35;42.23;100701.13;42020223;28;20039;-73
2023/09/16 04:44:29;;;;;;;1.70;1.58;;;;;;;24.10;42.69;100693.47;42017412;28;20127;-72
2023/09/16 05:04:30;;;;;;;4.50;1.60;;;;;;;24.30;42.99;100723.53;42009156;28;20086;-71
2023/09/16 05:24:31;;;;;;;2.95;1.52;;;;;;;24.03;42.93;100708.19;42012704;28;20072;-72
2023/09/16 05:44:31;;;;;;;6.72;1.80;;;;;;;23.79;43.88;100748.06;42018077;28;20048;-71
2023/09/16 06:04:32;;;;;;;7.07;1.95;;;;;;;22.12;47.16;100758.50;42025260;28;20048;-73
2023/09/16 06:24:33;;;;;;;6.57;3.53;;;;;;;22.26;47.46;100753.00;42026232;28;20076;-77
2023/09/16 06:44:33;;;;;;;3.75;2.60;;;;;;;22.32;47.36;100733.25;42069018;28;21044;-77
2023/09/16 07:04:36;;;;;;;5.78;3.78;;;;;;;21.95;47.85;100750.06;42083912;28;20044;-75
2023/09/16 07:24:37;;;;;;;3.60;2.30;;;;;;;22.14;47.60;100752.19;42066906;28;20040;-76
2023/09/16 07:44:38;;;;;;;23.83;2.58;;;;;;;23.17;46.73;100748.63;42058497;28;20047;-74
2023/09/16 08:04:38;;;;;;;37.22;4.00;;;;;;;23.64;46.79;100721.97;42066483;27;20487;-79
2023/09/16 08:24:39;;;;;;;20.33;2.97;;;;;;;23.15;45.98;100715.34;42061737;28;20051;-75
2023/09/16 18:32:51;;;;;;;4.47;4.00;;;;;;;22.66;53.59;100586.31;51044966;22;1806927;-72
2023/09/16 18:52:54;;;;;;;17.75;5.40;;;;;;;22.83;53.67;100606.06;50926384;23;20031;-70
2023/09/16 19:12:55;;;;;;;16.38;5.05;;;;;;;23.12;52.77;100596.72;50920781;23;20009;-70
2023/09/16 19:32:59;;;;;;;6.95;4.68;;;;;;;23.01;53.20;100638.06;51198536;23;20176;-72
2023/09/16 19:53:00;;;;;;;6.22;4.18;;;;;;;23.01;53.38;100643.34;51268476;23;20024;-71
2023/09/16 20:13:01;;;;;;;6.97;4.53;;;;;;;22.82;53.68;100653.72;51293694;23;20468;-70
2023/09/16 20:33:09;;;;;;;6.68;4.68;;;;;;;22.55;53.90;100639.13;51267178;23;20677;-69
2023/09/16 20:53:10;;;;;;;5.57;4.20;;;;;;;22.28;54.81;100627.13;51299934;23;20454;-68
2023/09/16 21:13:11;;;;;;;7.13;5.20;;;;;;;22.23;55.25;100638.03;51298811;23;20025;-68
2023/09/16 21:33:11;;;;;;;7.43;4.47;;;;;;;21.97;55.59;100611.06;51293977;23;20462;-68
2023/09/16 21:53:11;;;;;;;6.75;4.82;;;;;;;22.15;55.55;100615.84;51268781;23;20021;-68
2023/09/16 22:13:13;;;;;;;9.07;5.10;;;;;;;21.95;55.55;100601.56;51298412;23;20013;-68
2023/09/16 22:33:19;;;;;;;8.98;5.50;;;;;;;21.99;56.06;100638.13;51281974;22;20098;-68
2023/09/16 22:53:20;;;;;;;7.43;5.70;;;;;;;22.00;55.33;100653.00;51276809;23;20025;-69
2023/09/16 23:13:20;;;;;;;7.07;5.22;;;;;;;;;;51297370;23;20021;-68
2023/09/16 23:33:21;;;;;;;7.55;4.97;;;;;;;21.84;55.94;100666.50;51285240;23;20025;-68
2023/09/16 23:53:22;;;;;;;8.95;5.50;;;;;;;21.37;55.91;100620.81;51287436;23;20358;-68
